Shady Grove, Pennsylvania
Current Conditions -  °F | °C
As of 10:53 PM on Sunday 25 Jan 2015 (Local Time) from KHGR Reporting Station
Overcast Overcast  
Wind Chill: 30°   Ceiling: 3800
Heat Index: 36°   Visibility: 9mi
Dew Point: 33°   Wind: 8mph
Humidity: 89%   Direction: 50°NE
Pressure: 29.83"   Gusts: NA
Location:  39.78°N, 77.67°W
Report Text: KHGR 260353Z 05007KT 9SM OVC038 02/01 A2983 RMK AO2 RAE00UPB00E15 SLP116 P0000 T00220006
Loading
Personal Weather Stations






























Interactive Weather Map New forecast layout! Learn more

10-Day Weather Forecast

Advertisements
Track Severe Weather on mobile